createdAt,value
2022-12-27T00:07:07.928Z,100.00
2022-12-27T00:17:10.430Z,100.00
2022-12-27T00:27:13.142Z,100.00
2022-12-27T00:37:15.669Z,100.00
2022-12-27T00:47:18.220Z,100.00
2022-12-27T00:57:20.709Z,100.00
2022-12-27T01:07:24.081Z,100.00
2022-12-27T01:17:26.668Z,100.00
2022-12-27T01:27:29.305Z,100.00
2022-12-27T01:37:31.804Z,100.00
2022-12-27T01:47:50.943Z,100.00
2022-12-27T01:57:57.973Z,100.00
2022-12-27T02:08:06.418Z,100.00
2022-12-27T02:18:09.064Z,100.00
2022-12-27T02:28:33.036Z,100.00
2022-12-27T02:38:42.286Z,100.00
2022-12-27T02:49:15.310Z,100.00
2022-12-27T02:59:26.582Z,100.00
2022-12-27T03:09:53.601Z,100.00
2022-12-27T03:20:21.736Z,100.00
2022-12-27T03:30:42.596Z,100.00
2022-12-27T03:41:16.001Z,100.00
2022-12-27T03:51:21.742Z,100.00
2022-12-27T04:01:25.016Z,100.00
2022-12-27T04:11:46.612Z,100.00
2022-12-27T04:22:07.680Z,100.00
2022-12-27T04:32:28.855Z,100.00
2022-12-27T04:42:49.778Z,100.00
2022-12-27T04:53:10.806Z,100.00
2022-12-27T05:03:17.664Z,100.00
2022-12-27T05:13:38.444Z,100.00
2022-12-27T05:24:05.230Z,100.00
2022-12-27T05:34:08.213Z,100.00
2022-12-27T05:44:10.785Z,100.00
2022-12-27T05:54:13.394Z,100.00
2022-12-27T06:04:16.746Z,100.00
2022-12-27T06:14:19.313Z,100.00
2022-12-27T06:24:21.768Z,100.00
2022-12-27T06:34:24.239Z,100.00
2022-12-27T06:44:26.843Z,100.00
2022-12-27T06:54:29.739Z,100.00
2022-12-27T07:04:32.377Z,100.00
2022-12-27T07:14:34.873Z,100.00
2022-12-27T07:24:37.351Z,100.00
2022-12-27T07:34:41.106Z,100.00
2022-12-27T07:44:43.713Z,100.00
2022-12-27T07:54:46.226Z,100.00
2022-12-27T08:04:48.761Z,100.00
2022-12-27T08:14:51.331Z,100.00
2022-12-27T08:24:55.858Z,100.00
2022-12-27T08:35:11.965Z,85.57
2022-12-27T08:45:22.055Z,84.84
2022-12-27T08:55:31.800Z,74.72
2022-12-27T09:05:41.494Z,73.93
2022-12-27T09:15:45.220Z,67.13
2022-12-27T09:25:48.164Z,59.40
2022-12-27T09:35:50.733Z,54.04
2022-12-27T09:45:57.797Z,53.02
2022-12-27T09:56:00.754Z,50.88
2022-12-27T10:06:33.731Z,48.30
2022-12-27T10:16:59.610Z,46.91
2022-12-27T10:27:02.749Z,43.35
2022-12-27T10:37:05.495Z,46.42
2022-12-27T10:47:08.841Z,49.93
2022-12-27T10:57:26.905Z,50.68
2022-12-27T11:07:34.057Z,47.22
2022-12-27T11:17:45.164Z,44.12
2022-12-27T11:27:51.959Z,37.71
2022-12-27T11:37:54.703Z,41.27
2022-12-27T11:48:03.033Z,39.60
2022-12-27T11:58:32.167Z,43.23
2022-12-27T12:08:43.384Z,43.36
2022-12-27T12:19:19.950Z,42.26
2022-12-27T12:29:37.560Z,37.39
2022-12-27T12:39:55.343Z,32.57
2022-12-27T12:50:13.435Z,32.60
2022-12-27T13:00:28.523Z,41.35
2022-12-27T13:10:44.882Z,47.28
2022-12-27T13:21:02.519Z,48.59
2022-12-27T13:31:22.513Z,52.51
2022-12-27T13:41:49.997Z,51.81
2022-12-27T13:52:01.035Z,52.12
2022-12-27T14:02:28.263Z,52.15
2022-12-27T14:12:40.925Z,53.38
2022-12-27T14:22:54.330Z,53.69
2022-12-27T14:33:34.403Z,54.89
2022-12-27T14:43:44.938Z,55.56
2022-12-27T14:53:56.409Z,58.02
2022-12-27T15:04:04.189Z,57.67
2022-12-27T15:14:26.930Z,60.47
2022-12-27T15:24:57.221Z,62.02
2022-12-27T15:35:27.132Z,62.67
2022-12-27T15:45:40.210Z,64.74
2022-12-27T15:55:48.580Z,65.42
2022-12-27T16:05:53.144Z,63.98
2022-12-27T16:15:56.201Z,64.56
2022-12-27T16:26:19.797Z,66.09
2022-12-27T16:36:36.943Z,67.03
2022-12-27T16:46:45.540Z,67.43
2022-12-27T16:56:49.272Z,66.76
2022-12-27T17:06:54.904Z,66.31
2022-12-27T17:17:02.950Z,67.76
2022-12-27T17:27:30.200Z,69.49
2022-12-27T17:37:49.252Z,68.90
2022-12-27T17:48:23.431Z,69.84
2022-12-27T17:58:34.569Z,69.53
2022-12-27T18:08:38.655Z,72.26
2022-12-27T18:18:45.341Z,71.67
2022-12-27T18:28:48.233Z,71.63
2022-12-27T18:39:19.097Z,73.21
2022-12-27T18:49:27.541Z,74.97
2022-12-27T18:59:36.177Z,76.76
2022-12-27T19:09:49.736Z,76.63
2022-12-27T19:20:08.210Z,76.66
2022-12-27T19:30:33.165Z,76.92
2022-12-27T19:40:35.921Z,77.79
2022-12-27T19:50:43.679Z,78.65
2022-12-27T20:00:46.239Z,78.18
2022-12-27T20:10:49.350Z,79.55
2022-12-27T20:20:52.195Z,82.06
2022-12-27T20:30:54.784Z,84.01
2022-12-27T20:40:57.503Z,83.37
2022-12-27T20:51:05.826Z,84.81
2022-12-27T21:01:09.083Z,84.90
2022-12-27T21:11:17.258Z,84.81
2022-12-27T21:21:24.632Z,84.67
2022-12-27T21:31:30.987Z,85.71
2022-12-27T21:41:36.849Z,86.28
2022-12-27T21:51:41.006Z,87.15
2022-12-27T22:01:51.989Z,86.87
2022-12-27T22:11:55.234Z,85.62
2022-12-27T22:21:57.775Z,84.22
2022-12-27T22:32:00.386Z,84.57
2022-12-27T22:42:02.876Z,85.39
2022-12-27T22:52:05.367Z,86.09
2022-12-27T23:02:07.939Z,85.76
2022-12-27T23:12:10.616Z,85.44
2022-12-27T23:22:13.118Z,88.01
2022-12-27T23:32:15.528Z,85.46
2022-12-27T23:42:18.069Z,87.20
2022-12-27T23:52:21.268Z,84.64
